Time;durP1;ratioP1;P1;durP2;ratioP2;P2;SDS_P1;SDS_P2;PMS_P1;PMS_P2;Temp;Humidity;BMP_temperature;BMP_pressure;BME280_temperature;BME280_humidity;BME280_pressure;Samples;Min_cycle;Max_cycle;Signal;HPM_P1;HPM_P2
2021/09/24 00:01:53;;;;;;;3.80;3.13;;;;;;;15.52;68.96;100332.63;4935716;29;20095;-82
2021/09/24 00:04:20;;;;;;;7.05;3.33;;;;;;;15.54;68.74;100326.31;4933033;29;20400;-81
2021/09/24 00:06:47;;;;;;;10.13;3.72;;;;;;;15.54;68.77;100334.19;4934900;29;20043;-82
2021/09/24 00:09:14;;;;;;;4.15;2.85;;;;;;;15.58;68.38;100326.94;4931281;29;20035;-82
2021/09/24 00:11:43;;;;;;;4.90;2.95;;;;;;;15.59;68.47;100326.81;4932451;29;20052;-82
2021/09/24 00:14:10;;;;;;;7.70;3.47;;;;;;;15.68;67.77;100328.03;4930717;29;20043;-82
2021/09/24 00:16:38;;;;;;;8.90;4.53;;;;;;;15.74;67.68;100326.75;4931518;29;20058;-82
2021/09/24 00:19:06;;;;;;;5.75;3.72;;;;;;;15.71;67.60;100323.41;4930902;29;20089;-82
2021/09/24 00:21:33;;;;;;;3.60;2.80;;;;;;;15.67;68.08;100315.84;4932853;29;20071;-82
2021/09/24 00:24:03;;;;;;;4.53;3.20;;;;;;;15.66;67.98;100314.16;4930301;29;20137;-82
2021/09/24 00:26:37;;;;;;;4.72;3.65;;;;;;;15.61;68.21;100306.56;4913077;29;20052;-82
2021/09/24 00:29:04;;;;;;;6.97;3.33;;;;;;;15.63;67.99;100306.47;4919230;29;20407;-82
2021/09/24 00:31:31;;;;;;;4.75;3.15;;;;;;;15.60;68.08;100304.84;4936891;29;20042;-82
2021/09/24 00:34:00;;;;;;;4.00;3.00;;;;;;;15.52;68.68;100294.06;4926461;29;20043;-83
2021/09/24 00:36:27;;;;;;;5.03;3.38;;;;;;;15.59;68.27;100303.19;4936752;29;20079;-84
2021/09/24 00:39:05;;;;;;;7.10;3.00;;;;;;;15.58;68.31;100290.16;4936009;29;20080;-81
2021/09/24 00:41:33;;;;;;;3.85;3.08;;;;;;;15.54;68.24;100289.53;4937391;29;20044;-84
2021/09/24 00:44:02;;;;;;;3.65;3.35;;;;;;;15.62;67.97;100287.22;4936983;29;20046;-84
2021/09/24 00:46:29;;;;;;;11.07;5.25;;;;;;;15.62;67.64;100289.00;4937421;29;20127;-84
2021/09/24 00:49:05;;;;;;;8.38;3.20;;;;;;;15.62;67.91;100295.09;4936508;29;20578;-81
2021/09/24 00:51:32;;;;;;;5.13;3.20;;;;;;;15.59;68.14;100290.03;4937258;29;20460;-81
2021/09/24 00:54:03;;;;;;;3.75;3.10;;;;;;;15.57;68.07;100277.97;4936834;29;20106;-81
2021/09/24 00:56:30;;;;;;;5.45;3.13;;;;;;;15.52;68.30;100275.66;4935773;29;20040;-80
2021/09/24 00:59:01;;;;;;;6.20;3.47;;;;;;;15.52;68.43;100270.41;4936187;29;20101;-80
2021/09/24 01:01:28;;;;;;;8.70;3.45;;;;;;;15.52;68.33;100266.94;4936589;29;20083;-81
2021/09/24 01:04:07;;;;;;;3.70;2.78;;;;;;;15.47;68.48;100275.16;4916954;29;20044;-81
2021/09/24 01:06:44;;;;;;;5.07;3.42;;;;;;;15.50;68.51;100272.31;4917820;29;20506;-82
2021/09/24 01:09:11;;;;;;;7.93;3.20;;;;;;;15.49;68.15;100267.97;4917992;29;20040;-80
2021/09/24 01:11:39;;;;;;;7.45;4.00;;;;;;;15.51;68.14;100268.75;4933698;29;20048;-80
2021/09/24 01:14:06;;;;;;;4.55;3.30;;;;;;;15.51;68.18;100260.84;4937002;29;20040;-79
2021/09/24 01:16:33;;;;;;;8.77;3.60;;;;;;;15.46;68.19;100265.59;4936713;29;20054;-79
2021/09/24 01:19:00;;;;;;;6.57;3.55;;;;;;;15.46;68.00;100260.34;4937294;29;20036;-81
2021/09/24 01:21:27;;;;;;;4.82;4.30;;;;;;;15.39;68.45;100253.81;4937021;29;20052;-79
2021/09/24 01:23:54;;;;;;;5.93;2.97;;;;;;;15.40;68.30;100260.78;4936453;29;20506;-79
2021/09/24 01:26:20;;;;;;;4.20;3.00;;;;;;;15.40;68.39;100253.72;4936133;29;20510;-79
2021/09/24 01:28:47;;;;;;;3.95;3.53;;;;;;;15.40;68.43;100256.34;4936746;29;20047;-79
2021/09/24 01:31:15;;;;;;;4.53;3.47;;;;;;;15.38;68.02;100239.84;4936057;29;20076;-79
2021/09/24 01:33:47;;;;;;;5.03;3.25;;;;;;;15.39;68.00;100245.94;4936388;29;20046;-79
2021/09/24 01:36:15;;;;;;;5.13;3.28;;;;;;;15.41;67.63;100238.81;4936446;29;20479;-79
2021/09/24 01:38:42;;;;;;;5.93;3.50;;;;;;;15.40;67.83;100239.75;4935861;29;20486;-79
2021/09/24 01:41:09;;;;;;;6.20;3.80;;;;;;;15.40;67.67;100240.59;4936574;29;20039;-79
2021/09/24 01:43:37;;;;;;;6.05;3.35;;;;;;;15.37;67.69;100239.97;4936135;29;20033;-80
2021/09/24 01:46:05;;;;;;;5.18;3.60;;;;;;;15.36;67.69;100236.50;4936628;29;20044;-79
2021/09/24 01:48:33;;;;;;;4.05;3.50;;;;;;;15.34;67.79;100229.66;4935993;29;20054;-80
2021/09/24 01:50:59;;;;;;;5.50;3.00;;;;;;;15.40;67.59;100229.25;4936340;29;20039;-80
2021/09/24 01:53:26;;;;;;;4.55;3.13;;;;;;;15.39;67.54;100214.41;4936067;29;20101;-79
2021/09/24 01:55:53;;;;;;;6.20;3.30;;;;;;;15.48;66.99;100223.44;4936686;29;20047;-80
2021/09/24 01:58:20;;;;;;;5.47;3.20;;;;;;;15.45;67.14;100225.34;4936170;29;20048;-79
2021/09/24 02:00:47;;;;;;;4.43;3.10;;;;;;;15.44;66.94;100220.19;4936306;29;20135;-80
2021/09/24 02:03:14;;;;;;;4.18;3.35;;;;;;;15.49;66.95;100210.19;4935961;29;20044;-79
2021/09/24 02:05:41;;;;;;;5.95;3.15;;;;;;;15.51;66.66;100210.94;4936204;29;20506;-80
2021/09/24 02:08:08;;;;;;;8.38;3.47;;;;;;;15.47;66.82;100209.47;4936153;29;20036;-80
2021/09/24 02:10:35;;;;;;;3.83;3.40;;;;;;;15.44;67.01;100199.16;4936161;29;20399;-80
2021/09/24 02:13:03;;;;;;;4.88;3.13;;;;;;;15.52;66.79;100203.91;4936240;29;20118;-80
2021/09/24 02:15:30;;;;;;;4.88;3.67;;;;;;;15.59;65.98;100203.34;4936038;29;20063;-80
2021/09/24 02:17:57;;;;;;;3.53;2.97;;;;;;;15.50;66.52;100195.25;4923829;29;20043;-80
2021/09/24 02:20:25;;;;;;;5.90;3.13;;;;;;;15.46;66.67;100197.28;4935452;29;20206;-80
2021/09/24 02:22:52;;;;;;;3.28;2.75;;;;;;;15.47;66.72;100201.59;4936300;29;20048;-80
2021/09/24 02:25:19;;;;;;;5.78;3.40;;;;;;;15.53;66.48;100208.19;4935802;29;20102;-80
2021/09/24 02:27:46;;;;;;;5.50;2.92;;;;;;;15.52;66.19;100212.63;4935900;29;20048;-80
2021/09/24 02:30:13;;;;;;;4.13;3.25;;;;;;;15.45;66.55;100209.59;4936066;29;20052;-79
2021/09/24 02:32:41;;;;;;;4.30;3.78;;;;;;;15.44;66.59;100210.50;4936317;29;20043;-79
2021/09/24 02:35:08;;;;;;;4.50;3.08;;;;;;;15.40;66.78;100213.50;4917974;29;20052;-79
2021/09/24 02:37:35;;;;;;;3.17;2.88;;;;;;;15.34;67.03;100219.16;4918948;29;20047;-79
2021/09/24 02:40:03;;;;;;;3.67;3.20;;;;;;;15.33;67.27;100228.81;4932097;29;20054;-80
2021/09/24 02:42:30;;;;;;;4.63;3.17;;;;;;;15.25;67.75;100225.06;4936352;29;20067;-80
2021/09/24 02:44:57;;;;;;;3.30;2.97;;;;;;;15.20;67.80;100223.59;4936304;29;20526;-79
2021/09/24 02:47:23;;;;;;;8.32;3.70;;;;;;;15.19;67.96;100226.34;4945374;29;20040;-80
2021/09/24 02:49:50;;;;;;;6.63;3.78;;;;;;;15.23;67.59;100222.53;4935785;29;20048;-79
2021/09/24 02:52:17;;;;;;;5.03;3.35;;;;;;;15.28;67.39;100224.84;4934752;29;20103;-80
2021/09/24 02:54:44;;;;;;;4.72;3.35;;;;;;;15.26;67.50;100226.75;4935070;29;20048;-80
2021/09/24 02:57:11;;;;;;;4.57;3.10;;;;;;;15.29;67.30;100223.91;4936319;29;20075;-79
2021/09/24 02:59:38;;;;;;;5.00;3.20;;;;;;;15.26;67.73;100226.75;4934786;29;20043;-80
2021/09/24 03:02:05;;;;;;;5.20;3.67;;;;;;;15.23;67.73;100222.53;4935499;29;20043;-78
2021/09/24 03:04:33;;;;;;;5.95;3.35;;;;;;;15.20;67.61;100214.88;4935319;29;20086;-79
2021/09/24 03:06:59;;;;;;;5.70;3.35;;;;;;;15.18;67.72;100215.00;4937365;29;20133;-78
2021/09/24 03:09:26;;;;;;;8.05;3.72;;;;;;;15.17;68.05;100213.28;4939221;29;20387;-79
2021/09/24 03:11:53;;;;;;;7.85;3.10;;;;;;;15.26;67.48;100209.19;4939217;29;20043;-80
2021/09/24 03:14:20;;;;;;;3.83;2.95;;;;;;;15.27;67.32;100220.53;4938955;29;20418;-80
2021/09/24 03:16:47;;;;;;;3.58;2.88;;;;;;;15.29;67.28;100223.91;4939274;28;20126;-79
2021/09/24 03:19:18;;;;;;;5.65;3.13;;;;;;;15.29;67.05;100221.28;4939295;29;20051;-79
2021/09/24 03:21:49;;;;;;;3.78;2.63;;;;;;;15.26;67.20;100216.22;4939067;29;20078;-79
2021/09/24 03:24:17;;;;;;;4.28;3.38;;;;;;;15.27;67.50;100223.16;4938954;29;20048;-79
2021/09/24 03:26:45;;;;;;;5.55;3.20;;;;;;;15.29;67.33;100218.66;4938675;29;20040;-78
2021/09/24 03:29:12;;;;;;;3.45;2.78;;;;;;;15.35;66.77;100211.19;4938782;29;20403;-78
2021/09/24 03:31:41;;;;;;;3.28;2.67;;;;;;;15.35;66.65;100210.34;4938966;29;20051;-80
2021/09/24 03:34:11;;;;;;;5.90;3.65;;;;;;;15.48;66.10;100216.41;4939344;29;20130;-81
2021/09/24 03:36:38;;;;;;;4.80;2.60;;;;;;;15.51;65.98;100212.72;4937365;29;20138;-81
2021/09/24 03:39:10;;;;;;;3.58;2.92;;;;;;;15.48;65.99;100211.16;4937741;29;20468;-81
2021/09/24 03:41:38;;;;;;;4.78;2.95;;;;;;;15.45;66.05;100212.22;4938322;29;20052;-81
2021/09/24 03:44:05;;;;;;;5.93;3.13;;;;;;;15.50;65.98;100211.03;4938153;29;20502;-81
2021/09/24 03:46:32;;;;;;;7.07;2.72;;;;;;;15.50;65.93;100216.28;4937162;29;20493;-82
2021/09/24 03:48:58;;;;;;;4.40;3.58;;;;;;;15.44;66.46;100214.94;4938793;29;20142;-79
2021/09/24 03:51:26;;;;;;;5.80;3.35;;;;;;;15.38;66.39;100223.25;4938367;29;20079;-80
2021/09/24 03:53:53;;;;;;;5.60;3.33;;;;;;;15.32;67.13;100226.31;4938099;29;20059;-78
2021/09/24 03:56:21;;;;;;;3.45;3.15;;;;;;;15.28;67.43;100228.28;4937211;29;20405;-78
2021/09/24 03:58:48;;;;;;;4.03;2.80;;;;;;;15.31;67.09;100228.09;4938288;29;20047;-79
2021/09/24 04:01:15;;;;;;;5.07;3.42;;;;;;;15.31;67.21;100232.50;4937942;29;20051;-79
2021/09/24 04:03:43;;;;;;;6.07;3.22;;;;;;;15.31;66.81;100224.63;4938257;29;20545;-78
2021/09/24 04:06:10;;;;;;;4.65;3.33;;;;;;;15.28;67.08;100225.66;4938422;29;20043;-78
2021/09/24 04:08:37;;;;;;;5.57;3.50;;;;;;;15.32;66.65;100229.78;4938042;29;20071;-80
2021/09/24 04:11:04;;;;;;;4.80;3.70;;;;;;;15.36;66.50;100225.16;4937546;29;20046;-78
2021/09/24 04:13:31;;;;;;;3.97;3.60;;;;;;;15.41;66.37;100241.44;4938159;29;20051;-79
2021/09/24 04:15:58;;;;;;;4.85;3.20;;;;;;;15.30;66.92;100238.72;4938885;29;20044;-79
2021/09/24 04:18:25;;;;;;;4.63;3.08;;;;;;;15.24;67.25;100233.91;4938132;29;20122;-79
2021/09/24 04:20:52;;;;;;;4.05;3.20;;;;;;;15.17;67.21;100243.97;4938034;29;20110;-80
2021/09/24 04:23:19;;;;;;;4.95;3.97;;;;;;;14.79;69.43;100243.97;4938018;28;20555;-80
2021/09/24 04:25:46;;;;;;;7.10;3.95;;;;;;;14.54;71.05;100248.25;4938203;29;20044;-88
2021/09/24 04:28:18;;;;;;;8.25;6.13;;;;;;;13.76;74.34;100255.03;4938504;29;20040;-83
2021/09/24 04:30:45;;;;;;;14.77;5.68;;;;;;;13.68;75.71;100255.50;4938029;29;20052;-83
2021/09/24 04:33:12;;;;;;;10.95;5.80;;;;;;;13.67;75.90;100256.44;4938506;29;20619;-85
2021/09/24 04:35:38;;;;;;;7.05;5.65;;;;;;;13.63;76.37;100257.56;4937698;29;20040;-83
2021/09/24 04:38:06;;;;;;;7.30;5.65;;;;;;;13.66;76.11;100251.31;4934557;29;20106;-82
2021/09/24 04:40:33;;;;;;;7.88;6.05;;;;;;;13.65;76.23;100250.47;4925812;29;20450;-88
2021/09/24 04:43:00;;;;;;;10.23;7.43;;;;;;;13.42;77.16;100251.88;4937189;29;20048;-87
2021/09/24 04:45:29;;;;;;;8.63;6.93;;;;;;;13.23;78.35;100253.97;4939934;29;20103;-85
2021/09/24 04:47:56;;;;;;;13.05;11.05;;;;;;;13.10;80.36;100254.69;4937077;29;20487;-84
2021/09/24 04:50:23;;;;;;;19.38;13.60;;;;;;;12.91;82.97;100250.63;4937694;29;20035;-86
2021/09/24 04:52:50;;;;;;;19.95;12.15;;;;;;;12.78;84.50;100250.50;4937814;29;20119;-87
2021/09/24 04:55:16;;;;;;;17.38;13.43;;;;;;;12.87;84.60;100247.34;4938363;29;20103;-86
2021/09/24 04:57:43;;;;;;;16.40;11.20;;;;;;;12.95;82.99;100247.75;4938458;29;20040;-86
2021/09/24 05:00:11;;;;;;;23.23;11.27;;;;;;;12.99;83.07;100248.38;4938404;29;20035;-87
2021/09/24 05:02:40;;;;;;;14.35;10.85;;;;;;;12.92;84.46;100249.69;4937459;29;20499;-86
2021/09/24 05:05:09;;;;;;;25.20;11.65;;;;;;;13.04;86.68;100244.56;4938114;29;20043;-86
2021/09/24 05:07:36;;;;;;;14.40;10.98;;;;;;;13.36;83.39;100252.25;4937725;29;20048;-87
2021/09/24 05:10:04;;;;;;;12.32;9.38;;;;;;;13.28;83.31;100250.13;4938872;29;20039;-88
2021/09/24 05:12:32;;;;;;;17.55;12.68;;;;;;;12.67;86.14;100255.50;4938965;29;20028;-85
2021/09/24 05:15:49;;;;;;;13.63;10.88;;;;;;;12.76;86.46;100252.38;4948898;29;20027;-85
2021/09/24 05:19:01;;;;;;;14.18;10.25;;;;;;;12.95;86.21;100247.75;5293863;23;21512;-87
2021/09/24 05:21:28;;;;;;;15.50;10.15;;;;;;;13.39;83.17;100248.63;4900252;29;20464;-92
2021/09/24 05:23:55;;;;;;;15.00;11.60;;;;;;;13.48;81.67;100258.53;4914286;29;20051;-85
2021/09/24 05:26:22;;;;;;;11.55;8.93;;;;;;;13.43;81.82;100255.38;4916992;29;20044;-86
2021/09/24 05:28:49;;;;;;;13.50;10.20;;;;;;;13.51;81.89;100253.09;4898941;29;20049;-83
2021/09/24 05:31:15;;;;;;;12.27;9.68;;;;;;;13.72;81.35;100261.41;4912452;29;20040;-86
2021/09/24 05:33:42;;;;;;;12.88;10.40;;;;;;;13.86;79.23;100261.38;4918670;29;20044;-84
2021/09/24 05:36:11;;;;;;;22.98;12.85;;;;;;;13.82;79.59;100262.50;4914315;29;20441;-82
2021/09/24 05:38:41;;;;;;;15.60;9.98;;;;;;;13.64;80.45;100246.19;4912248;29;20056;-83
2021/09/24 05:41:08;;;;;;;14.75;11.25;;;;;;;13.53;80.90;100259.06;4910150;29;20403;-86
2021/09/24 05:43:36;;;;;;;15.30;9.48;;;;;;;13.77;79.92;100254.09;4914108;29;20444;-88
2021/09/24 05:46:03;;;;;;;16.98;11.40;;;;;;;13.93;79.25;100254.81;4914918;29;20040;-83
2021/09/24 05:48:30;;;;;;;17.60;10.95;;;;;;;13.97;78.72;100261.53;4914369;29;20095;-80
2021/09/24 05:50:58;;;;;;;14.55;11.55;;;;;;;13.52;80.02;100255.63;4907919;29;20135;-83
2021/09/24 05:53:26;;;;;;;14.93;12.40;;;;;;;13.39;80.89;100259.94;4911901;29;20091;-80
2021/09/24 05:55:53;;;;;;;18.35;13.52;;;;;;;13.66;79.48;100261.78;4903582;29;20048;-82
2021/09/24 05:58:20;;;;;;;20.60;14.38;;;;;;;13.90;78.85;100260.22;4902727;29;20103;-80
2021/09/24 06:00:47;;;;;;;19.15;14.45;;;;;;;14.00;78.07;100266.56;4903300;29;20048;-83
2021/09/24 06:03:14;;;;;;;20.70;14.80;;;;;;;14.05;77.92;100256.63;4914060;29;20171;-82
2021/09/24 06:05:41;;;;;;;15.50;12.40;;;;;;;13.96;80.85;100266.88;4914629;29;20044;-83
2021/09/24 06:08:07;;;;;;;15.43;12.05;;;;;;;14.19;78.76;100275.88;4913561;29;20056;-85
2021/09/24 06:10:38;;;;;;;15.00;12.73;;;;;;;14.25;77.72;100270.25;4916076;29;20132;-85
2021/09/24 06:13:07;;;;;;;15.57;11.60;;;;;;;14.45;78.05;100271.56;4911900;29;20050;-84
2021/09/24 06:15:35;;;;;;;14.32;12.32;;;;;;;14.05;78.25;100274.13;4914873;29;20051;-85
2021/09/24 06:18:03;;;;;;;20.15;13.45;;;;;;;14.18;78.19;100268.97;4913171;29;20052;-82
2021/09/24 06:20:31;;;;;;;15.23;11.98;;;;;;;14.54;76.15;100266.59;4914810;29;20048;-84
2021/09/24 06:22:58;;;;;;;18.88;13.50;;;;;;;14.56;76.22;100267.31;4915524;29;20523;-84
2021/09/24 06:25:25;;;;;;;17.65;13.68;;;;;;;14.62;75.89;100264.28;4913108;29;20044;-86
2021/09/24 06:27:52;;;;;;;19.50;13.40;;;;;;;14.74;75.03;100261.78;4912018;29;20107;-84
2021/09/24 06:30:21;;;;;;;22.33;16.17;;;;;;;14.83;75.04;100261.19;4910290;29;20095;-83
2021/09/24 06:32:49;;;;;;;30.58;22.77;;;;;;;14.84;74.39;100260.22;4908995;29;20140;-83
2021/09/24 06:35:16;;;;;;;25.58;21.50;;;;;;;14.88;74.09;100264.34;4914850;29;20040;-83
2021/09/24 06:37:43;;;;;;;33.25;20.00;;;;;;;14.92;74.22;100261.41;4914935;29;20055;-80
2021/09/24 06:40:11;;;;;;;41.22;20.15;;;;;;;15.07;73.79;100261.28;4918458;29;20041;-81
2021/09/24 06:42:38;;;;;;;23.10;16.90;;;;;;;14.91;73.86;100257.09;4913147;29;20256;-87
2021/09/24 06:45:07;;;;;;;29.27;19.95;;;;;;;15.35;72.39;100258.47;4910651;29;20084;-87
2021/09/24 06:47:34;;;;;;;27.52;20.00;;;;;;;15.56;72.05;100265.78;4911765;29;20048;-89
2021/09/24 06:50:01;;;;;;;28.05;22.02;;;;;;;15.27;72.26;100260.75;4915273;29;20083;-88
2021/09/24 06:52:28;;;;;;;37.05;21.52;;;;;;;15.33;72.43;100259.50;4912550;29;20067;-93
2021/09/24 06:54:55;;;;;;;32.78;20.27;;;;;;;15.14;73.18;100266.03;4912753;29;20128;-92
2021/09/24 07:06:17;;;;;;;22.42;15.93;;;;;;;15.64;71.19;100264.31;5149223;23;20059;-86
2021/09/24 07:08:44;;;;;;;27.00;17.67;;;;;;;15.61;71.19;100266.31;4929386;29;20434;-82
2021/09/24 07:11:11;;;;;;;18.63;16.25;;;;;;;15.27;72.58;100271.25;4934887;29;20044;-87
2021/09/24 07:13:38;;;;;;;22.70;14.05;;;;;;;15.65;71.98;100266.00;4934823;29;20043;-84
2021/09/24 07:16:05;;;;;;;16.13;11.82;;;;;;;15.74;71.50;100279.44;4937953;29;20054;-84
2021/09/24 07:18:32;;;;;;;14.98;12.07;;;;;;;15.48;72.25;100276.81;4930825;29;20048;-85
2021/09/24 07:20:59;;;;;;;23.98;15.90;;;;;;;15.65;72.24;100276.50;4926902;29;20068;-86
2021/09/24 07:23:26;;;;;;;20.77;14.13;;;;;;;15.55;72.49;100285.09;4937622;29;20055;-88
2021/09/24 07:25:54;;;;;;;16.25;14.10;;;;;;;15.79;71.28;100282.59;4931820;29;20056;-93
2021/09/24 07:28:21;;;;;;;16.75;13.85;;;;;;;16.02;70.37;100275.66;4942016;29;20043;-90
2021/09/24 07:30:48;;;;;;;15.38;13.77;;;;;;;16.09;70.34;100282.19;4937152;29;20054;-90
2021/09/24 07:33:14;;;;;;;17.02;12.82;;;;;;;16.44;69.71;100271.69;4937390;29;20060;-94
2021/09/24 07:35:42;;;;;;;21.10;13.23;;;;;;;16.45;69.22;100278.63;4937507;29;20047;-90
2021/09/24 07:38:08;;;;;;;18.88;12.23;;;;;;;16.55;68.00;100279.63;4932728;29;20174;-85
2021/09/24 07:40:35;;;;;;;17.45;12.43;;;;;;;16.64;67.57;100278.13;4930358;29;20549;-92
2021/09/24 07:43:02;;;;;;;18.05;12.18;;;;;;;16.74;66.92;100279.97;4940417;29;20395;-85
2021/09/24 07:45:29;;;;;;;11.65;9.90;;;;;;;16.99;65.52;100270.22;4935655;29;20078;-84
2021/09/24 07:47:56;;;;;;;11.57;9.98;;;;;;;17.06;65.49;100278.50;4934996;29;20075;-84
2021/09/24 07:50:23;;;;;;;13.40;9.85;;;;;;;17.31;64.31;100275.66;4929993;29;20043;-85
2021/09/24 07:52:50;;;;;;;9.55;7.60;;;;;;;17.36;63.42;100277.91;4933725;29;20044;-87
2021/09/24 07:55:17;;;;;;;11.15;8.50;;;;;;;17.58;63.36;100277.94;4929591;29;20056;-87
2021/09/24 07:57:45;;;;;;;11.20;7.70;;;;;;;17.53;62.15;100286.19;4935109;29;20040;-86
2021/09/24 08:00:12;;;;;;;11.02;6.50;;;;;;;17.81;60.86;100284.06;4934298;29;20398;-81
2021/09/24 08:02:39;;;;;;;8.73;6.07;;;;;;;17.84;60.64;100278.50;4936967;29;20048;-83
2021/09/24 08:05:06;;;;;;;8.85;6.20;;;;;;;18.09;60.07;100276.56;4929330;29;20152;-85
2021/09/24 08:07:33;;;;;;;8.02;6.63;;;;;;;17.95;59.34;100277.66;4914157;29;20045;-84
2021/09/24 08:10:00;;;;;;;14.20;6.47;;;;;;;18.19;59.32;100278.31;4915668;29;20036;-84
2021/09/24 08:12:26;;;;;;;9.00;6.63;;;;;;;18.31;59.14;100277.31;4929276;29;20140;-84
2021/09/24 08:15:09;;;;;;;16.85;8.27;;;;;;;18.43;59.54;100279.91;4915811;29;20036;-84
2021/09/24 08:17:36;;;;;;;12.07;7.97;;;;;;;18.25;59.47;100277.81;4915368;29;20115;-83
2021/09/24 08:20:03;;;;;;;9.85;8.40;;;;;;;18.53;58.48;100283.47;4917738;29;20082;-84
2021/09/24 08:22:32;;;;;;;10.85;7.38;;;;;;;18.63;58.43;100289.66;4926393;29;20036;-84
2021/09/24 08:24:59;;;;;;;11.38;7.50;;;;;;;18.63;57.97;100286.19;4925788;29;20091;-84
2021/09/24 08:27:26;;;;;;;9.50;8.60;;;;;;;18.69;57.60;100286.53;4921074;29;20145;-84
2021/09/24 08:29:53;;;;;;;9.85;7.20;;;;;;;18.86;57.82;100281.69;4916649;29;20489;-84
2021/09/24 08:32:19;;;;;;;7.82;7.05;;;;;;;18.76;57.08;100282.44;4910560;29;20048;-88
2021/09/24 08:34:49;;;;;;;8.35;7.47;;;;;;;18.87;57.37;100278.06;4905129;29;20074;-84
2021/09/24 08:37:15;;;;;;;9.45;7.18;;;;;;;18.93;57.22;100282.84;4900064;29;20048;-80
2021/09/24 08:39:42;;;;;;;10.52;8.18;;;;;;;18.95;56.65;100280.88;4901048;29;20076;-81
2021/09/24 08:42:09;;;;;;;11.85;8.57;;;;;;;18.87;56.15;100286.00;4901395;29;20487;-81
2021/09/24 08:44:36;;;;;;;29.83;10.32;;;;;;;19.23;55.76;100280.25;4899416;29;20049;-80
2021/09/24 08:47:03;;;;;;;10.20;7.85;;;;;;;19.01;55.60;100280.38;4922705;29;20044;-81
2021/09/24 08:49:30;;;;;;;8.27;7.47;;;;;;;19.32;56.64;100273.31;4918849;29;20100;-81
2021/09/24 08:51:56;;;;;;;11.18;9.20;;;;;;;19.27;55.99;100276.34;4917351;29;20044;-80
2021/09/24 08:54:26;;;;;;;11.73;8.75;;;;;;;19.32;55.91;100281.22;4917729;29;20129;-81
2021/09/24 08:56:52;;;;;;;9.75;8.75;;;;;;;19.62;55.19;100277.78;4917467;29;20434;-81
2021/09/24 08:59:19;;;;;;;11.10;9.40;;;;;;;19.42;55.96;100278.66;4936431;29;20048;-82
2021/09/24 09:02:02;;;;;;;10.75;9.45;;;;;;;19.51;55.72;100276.03;4936560;29;20462;-80
2021/09/24 09:04:47;;;;;;;11.60;10.48;;;;;;;19.57;55.44;100275.50;4935523;29;20040;-79
2021/09/24 09:07:18;;;;;;;12.60;10.07;;;;;;;19.65;55.37;100274.84;4898492;29;20044;-80
2021/09/24 09:09:50;;;;;;;11.75;9.73;;;;;;;19.72;55.59;100269.88;4905947;29;20041;-81
2021/09/24 09:12:24;;;;;;;10.50;9.27;;;;;;;19.98;54.43;100272.88;4913326;29;20447;-82
2021/09/24 09:15:05;;;;;;;10.55;8.63;;;;;;;20.13;52.83;100264.41;4915727;29;20044;-81
2021/09/24 09:17:38;;;;;;;9.10;8.20;;;;;;;20.23;52.71;100266.22;4915308;29;20040;-80
2021/09/24 09:20:24;;;;;;;10.60;9.50;;;;;;;20.01;54.09;100272.59;4934581;29;20438;-81
2021/09/24 09:23:06;;;;;;;11.00;9.18;;;;;;;20.08;53.15;100265.75;4898667;29;20108;-83
2021/09/24 09:25:44;;;;;;;12.90;9.43;;;;;;;20.31;52.73;100261.91;4896917;29;20045;-81
2021/09/24 09:28:25;;;;;;;10.98;9.10;;;;;;;20.25;52.62;100264.28;4922881;29;20067;-81
2021/09/24 09:30:53;;;;;;;11.75;9.50;;;;;;;20.38;52.97;100257.72;4934146;29;20051;-82
2021/09/24 09:33:21;;;;;;;12.70;9.85;;;;;;;20.72;52.63;100264.41;4901276;29;20048;-82
2021/09/24 09:35:53;;;;;;;11.23;10.02;;;;;;;21.00;51.80;100260.91;4895936;29;20044;-82
2021/09/24 09:38:33;;;;;;;15.18;10.20;;;;;;;20.75;52.19;100264.16;4895851;29;20052;-82
2021/09/24 09:41:05;;;;;;;19.83;9.80;;;;;;;20.90;52.61;100263.56;4895946;29;20055;-81
2021/09/24 09:43:34;;;;;;;12.18;8.93;;;;;;;20.83;51.26;100262.47;4903831;29;20048;-82
2021/09/24 09:46:22;;;;;;;14.35;9.38;;;;;;;21.02;50.59;100258.94;4932030;29;20047;-81
2021/09/24 09:49:10;;;;;;;12.23;9.45;;;;;;;21.25;51.45;100267.34;4895606;29;20045;-81
2021/09/24 09:51:39;;;;;;;16.45;10.23;;;;;;;21.05;50.82;100266.59;4895453;29;20080;-81
2021/09/24 09:54:12;;;;;;;13.40;10.18;;;;;;;21.08;51.44;100266.28;4894456;29;20051;-81
2021/09/24 09:56:49;;;;;;;12.48;9.82;;;;;;;21.06;51.01;100270.09;4912831;29;20043;-81
2021/09/24 09:59:31;;;;;;;11.35;9.65;;;;;;;21.41;50.00;100270.28;4935726;29;20427;-81
2021/09/24 10:02:17;;;;;;;12.05;9.10;;;;;;;21.46;49.15;100261.88;4909932;29;20044;-81
2021/09/24 10:04:47;;;;;;;10.30;9.05;;;;;;;21.43;49.46;100265.66;4897411;29;20053;-82
2021/09/24 10:07:19;;;;;;;10.35;9.25;;;;;;;21.38;49.76;100256.47;4897348;29;20546;-81
2021/09/24 10:09:47;;;;;;;14.32;9.38;;;;;;;21.38;49.68;100252.00;4931240;29;20509;-82
2021/09/24 10:12:19;;;;;;;10.15;9.07;;;;;;;21.68;49.48;100247.41;4921239;29;20116;-81
2021/09/24 10:14:48;;;;;;;12.55;9.95;;;;;;;21.68;48.85;100247.41;4897161;29;20044;-81
2021/09/24 10:17:16;;;;;;;11.75;9.23;;;;;;;21.89;48.71;100252.41;4909810;29;20494;-81
2021/09/24 10:19:43;;;;;;;10.38;9.35;;;;;;;21.89;48.54;100255.06;4899184;29;20112;-81
2021/09/24 10:22:11;;;;;;;14.35;11.73;;;;;;;21.90;49.16;100247.00;4897843;29;20044;-81
2021/09/24 10:24:42;;;;;;;10.52;9.52;;;;;;;21.94;49.00;100245.72;4897194;29;20096;-82
2021/09/24 10:27:23;;;;;;;13.18;10.98;;;;;;;21.51;49.75;100250.81;4897556;29;20044;-82
2021/09/24 10:29:51;;;;;;;21.13;10.82;;;;;;;22.08;48.71;100239.03;4922086;29;20047;-81
2021/09/24 10:32:26;;;;;;;16.25;11.43;;;;;;;22.06;48.21;100237.53;4934778;29;20557;-81
2021/09/24 10:35:06;;;;;;;11.70;10.50;;;;;;;22.33;47.16;100239.31;4916173;29;20549;-82
2021/09/24 10:37:36;;;;;;;11.20;9.27;;;;;;;22.20;46.85;100221.91;4916170;29;20407;-81
2021/09/24 10:40:27;;;;;;;13.25;10.07;;;;;;;22.60;46.42;100230.41;4914322;29;20058;-81
2021/09/24 10:42:58;;;;;;;15.00;11.38;;;;;;;22.65;46.45;100234.25;4934297;29;20104;-81
2021/09/24 10:45:39;;;;;;;12.02;10.85;;;;;;;22.76;46.38;100227.84;4926544;29;20071;-81
2021/09/24 10:48:18;;;;;;;13.82;12.38;;;;;;;22.55;46.44;100230.84;4901866;29;20395;-81
2021/09/24 10:51:00;;;;;;;13.02;10.48;;;;;;;22.72;46.04;100234.47;4928177;29;20063;-80
2021/09/24 10:53:42;;;;;;;15.07;11.38;;;;;;;22.81;45.92;100230.88;4899400;29;20037;-80
2021/09/24 10:56:09;;;;;;;12.75;11.00;;;;;;;22.48;46.26;100228.00;4897023;29;20044;-81
2021/09/24 10:58:39;;;;;;;11.98;10.82;;;;;;;22.48;45.83;100228.00;4897188;29;20052;-81
2021/09/24 11:01:11;;;;;;;12.73;9.98;;;;;;;22.62;46.33;100218.59;4929697;29;20127;-80
2021/09/24 11:03:52;;;;;;;12.85;11.13;;;;;;;22.93;46.42;100219.03;4934814;29;20497;-80
2021/09/24 11:06:37;;;;;;;13.60;10.85;;;;;;;22.74;45.63;100219.19;4897001;29;20087;-81
2021/09/24 11:09:07;;;;;;;12.75;10.85;;;;;;;22.60;46.07;100217.13;4908868;29;20048;-81
2021/09/24 11:11:36;;;;;;;12.27;11.07;;;;;;;22.92;45.39;100217.34;4900463;29;20499;-80
2021/09/24 11:14:29;;;;;;;11.55;10.55;;;;;;;23.20;44.84;100218.00;4895827;29;20104;-81
2021/09/24 11:16:58;;;;;;;10.50;9.52;;;;;;;23.12;44.77;100209.16;4905671;29;20059;-81
2021/09/24 11:19:27;;;;;;;11.63;10.43;;;;;;;23.17;43.81;100215.69;4896812;29;20097;-81
2021/09/24 11:22:07;;;;;;;11.43;10.23;;;;;;;23.03;42.94;100210.94;4900816;29;20044;-80
2021/09/24 11:24:37;;;;;;;17.70;11.02;;;;;;;23.25;43.52;100210.38;4934349;29;20051;-81
2021/09/24 11:27:09;;;;;;;10.02;9.02;;;;;;;23.30;43.25;100209.91;4923967;29;20040;-82
2021/09/24 11:30:18;;;;;;;11.45;10.25;;;;;;;23.45;44.07;100210.97;4900180;29;20072;-83
2021/09/24 11:32:48;;;;;;;12.48;11.18;;;;;;;23.58;43.29;100201.69;4893160;29;20558;-83
2021/09/24 11:35:19;;;;;;;10.35;9.35;;;;;;;23.42;43.16;100203.31;4878826;29;20077;-83
2021/09/24 11:37:46;;;;;;;14.95;11.88;;;;;;;23.26;43.83;100206.72;4897069;29;20056;-83